Flight Track Log - Related Links

Times and Time Zones

All times are in EDT time to prevent confusion due to time zone crossing. See the FFT933 flight status page for this flight to view local times or setup timezone preferences in your user account.

Time Position Orientation Groundspeed Altitude Reporting Facility
EDT Latitude Longitude Course Direction KTS MPH feet Rate Location/Type
Fri 03:01:16 PM 40.2220 -74.8840 225° Southwest 217 250 2,800  Level FlightAware ADS-B
Fri 03:01:38 PM 40.2060 -74.9050 225° Southwest 246 283 3,600 2,455 Climbing FlightAware ADS-B
Fri 03:02:00 PM 40.1860 -74.9300 224° Southwest 267 307 4,600 3,136 Climbing FlightAware ADS-B
Fri 03:02:22 PM 40.1670 -74.9540 224° Southwest 265 305 5,900 3,081 Climbing FlightAware ADS-B
Fri 03:02:37 PM 40.1540 -74.9710 225° Southwest 275 316 6,500 1,350 Climbing FlightAware ADS-B
Fri 03:03:02 PM 40.1320 -75.0010 226° Southwest 279 321 6,800 720 Climbing FlightAware ADS-B
Fri 03:03:02 PM 40.1320 -75.0010 226° Southwest 279 321 6,800  Level FlightAware ADS-B
Fri 03:03:12 PM 40.1220 -75.0140 225° Southwest 278 320 6,800  Level FlightAware ADS-B
Fri 03:03:12 PM 40.1220 -75.0140 225° Southwest 278 320 6,800  Level FlightAware ADS-B
Fri 03:03:38 PM 40.0990 -75.0450 226° Southwest 280 322 6,800  Level FlightAware ADS-B
Fri 03:03:38 PM 40.0990 -75.0450 226° Southwest 280 322 6,800  Level FlightAware ADS-B
Fri 03:03:56 PM 40.0820 -75.0670 225° Southwest 280 322 6,800  Level FlightAware ADS-B
Fri 03:03:56 PM 40.0820 -75.0670 225° Southwest 280 322 6,800  Level FlightAware ADS-B
Fri 03:04:17 PM 40.0660 -75.0880 225° Southwest 278 320 6,800  Level FlightAware ADS-B
Fri 03:04:17 PM 40.0660 -75.0880 225° Southwest 278 320 6,800 1,091 Level FlightAware ADS-B
Fri 03:04:39 PM 40.0450 -75.1160 226° Southwest 278 320 7,200 1,091 Climbing FlightAware ADS-B
Fri 03:04:39 PM 40.0450 -75.1160 226° Southwest 278 320 7,200 2,800 Level FlightAware ADS-B
Fri 03:04:54 PM 40.0350 -75.1410 242° Southwest 285 328 7,900 2,800 Climbing FlightAware ADS-B
Fri 03:04:54 PM 40.0350 -75.1410 242° Southwest 285 328 7,900 3,300 Level FlightAware ADS-B
Fri 03:05:14 PM 40.0250 -75.1730 248° West 287 330 9,000 3,300 Climbing FlightAware ADS-B
Fri 03:05:14 PM 40.0250 -75.1730 248° West 287 330 9,000 1,800 Level FlightAware ADS-B
Fri 03:05:34 PM 40.0160 -75.2060 250° West 287 330 9,600 1,800 Climbing FlightAware ADS-B
Fri 03:05:34 PM 40.0160 -75.2060 250° West 287 330 9,600 600 Level FlightAware ADS-B
Fri 03:05:54 PM 40.0060 -75.2370 247° West 291 335 9,800 600 Climbing FlightAware ADS-B
Fri 03:05:54 PM 40.0060 -75.2370 247° West 291 335 9,800  Level FlightAware ADS-B
Fri 03:06:08 PM 39.9970 -75.2610 244° Southwest 292 336 9,800  Level FlightAware ADS-B
Fri 03:06:08 PM 39.9970 -75.2610 244° Southwest 292 336 9,800  Level FlightAware ADS-B
Fri 03:06:18 PM 39.9900 -75.2720 230° Southwest 293 337 9,800  Level FlightAware ADS-B
Fri 03:06:18 PM 39.9900 -75.2720 230° Southwest 293 337 9,800  Level FlightAware ADS-B
Fri 03:06:28 PM 39.9790 -75.2870 226° Southwest 295 339 9,800  Level FlightAware ADS-B
Fri 03:06:28 PM 39.9790 -75.2870 226° Southwest 295 339 9,800  Level FlightAware ADS-B
Fri 03:06:52 PM 39.9570 -75.3180 227° Southwest 295 339 9,800  Level FlightAware ADS-B
Fri 03:06:52 PM 39.9570 -75.3180 227° Southwest 295 339 9,800  Level FlightAware ADS-B
Fri 03:07:11 PM 39.9410 -75.3400 227° Southwest 294 338 9,800  Level FlightAware ADS-B
Fri 03:07:11 PM 39.9410 -75.3400 227° Southwest 294 338 9,800  Level FlightAware ADS-B
Fri 03:07:31 PM 39.9220 -75.3680 229° Southwest 294 338 9,800  Level FlightAware ADS-B
Fri 03:07:31 PM 39.9220 -75.3680 229° Southwest 294 338 9,800  Level FlightAware ADS-B
Fri 03:07:57 PM 39.8980 -75.4020 227° Southwest 295 339 9,800  Level FlightAware ADS-B
Fri 03:07:57 PM 39.8980 -75.4020 227° Southwest 295 339 9,800  Level FlightAware ADS-B
Fri 03:08:17 PM 39.8870 -75.4300 243° Southwest 291 335 9,800  Level FlightAware ADS-B
Fri 03:08:17 PM 39.8870 -75.4300 243° Southwest 291 335 9,800  Level FlightAware ADS-B
Fri 03:08:24 PM 39.8850 -75.4440 259° West 291 335 9,800  Level FlightAware ADS-B
Fri 03:08:24 PM 39.8850 -75.4440 259° West 291 335 9,800  Level FlightAware ADS-B
Fri 03:08:43 PM 39.8800 -75.4800 260° West 292 336 9,800  Level FlightAware ADS-B
Fri 03:08:43 PM 39.8800 -75.4800 260° West 292 336 9,800  Level FlightAware ADS-B
Fri 03:09:05 PM 39.8750 -75.5150 259° West 307 353 9,800  Level FlightAware ADS-B
Fri 03:09:05 PM 39.8750 -75.5150 259° West 307 353 9,800  Level FlightAware ADS-B
Fri 03:09:30 PM 39.8690 -75.5640 261° West 326 375 9,800  Level FlightAware ADS-B
Fri 03:09:30 PM 39.8690 -75.5640 261° West 326 375 9,800 1,946 Level FlightAware ADS-B
Fri 03:10:07 PM 39.8590 -75.6390 260° West 330 380 11,000 1,946 Climbing FlightAware ADS-B
Fri 03:10:07 PM 39.8590 -75.6390 260° West 330 380 11,000 3,176 Level FlightAware ADS-B
Fri 03:10:41 PM 39.8500 -75.7080 260° West 335 386 12,800 3,176 Climbing FlightAware ADS-B
Fri 03:10:41 PM 39.8500 -75.7080 260° West 335 386 12,800 3,231 Level FlightAware ADS-B
Fri 03:10:54 PM 39.8470 -75.7340 261° West 335 386 13,500 3,231 Climbing FlightAware ADS-B
Fri 03:10:54 PM 39.8470 -75.7340 261° West 335 386 13,500 2,571 Level FlightAware ADS-B
Fri 03:11:43 PM 39.8340 -75.8300 260° West 347 399 15,600 2,571 Climbing FlightAware ADS-B
Fri 03:11:43 PM 39.8340 -75.8300 260° West 347 399 15,600 1,895 Level FlightAware ADS-B
Fri 03:12:21 PM 39.8250 -75.9110 262° West 349 402 16,800 1,895 Climbing FlightAware ADS-B
Fri 03:12:21 PM 39.8250 -75.9110 262° West 349 402 16,800  Level FlightAware ADS-B
Fri 03:12:53 PM 39.8180 -75.9780 262° West 351 404 16,800  Level FlightAware ADS-B
Fri 03:12:53 PM 39.8180 -75.9780 262° West 351 404 16,800 1,077 Level FlightAware ADS-B
Fri 03:13:32 PM 39.8080 -76.0610 261° West 357 411 17,500 1,077 Climbing FlightAware ADS-B
Fri 03:13:32 PM 39.8080 -76.0610 261° West 357 411 17,500 2,516 Level FlightAware ADS-B
Fri 03:14:03 PM 39.8010 -76.1260 262° West 362 417 18,800 2,516 Climbing FlightAware ADS-B
Fri 03:14:03 PM 39.8010 -76.1260 262° West 362 417 18,800 2,500 Level FlightAware ADS-B
Fri 03:14:39 PM 39.7840 -76.2030 254° West 374 430 20,300 2,500 Climbing FlightAware ADS-B
Fri 03:14:39 PM 39.7840 -76.2030 254° West 374 430 20,300 1,886 Level FlightAware ADS-B
Fri 03:15:14 PM 39.7460 -76.2650 231° Southwest 387 445 21,400 1,886 Climbing FlightAware ADS-B
Fri 03:15:14 PM 39.7460 -76.2650 231° Southwest 387 445 21,400 2,108 Level FlightAware ADS-B
Fri 03:15:51 PM 39.7050 -76.3330 232° Southwest 394 453 22,700 2,108 Climbing FlightAware ADS-B
Fri 03:15:51 PM 39.7050 -76.3330 232° Southwest 394 453 22,700 1,818 Level FlightAware ADS-B
Fri 03:16:24 PM 39.6670 -76.3940 231° Southwest 402 463 23,700 1,818 Climbing FlightAware ADS-B
Fri 03:16:24 PM 39.6670 -76.3940 231° Southwest 402 463 23,700 1,833 Level FlightAware ADS-B
Fri 03:17:00 PM 39.6250 -76.4610 231° Southwest 408 470 24,800 1,833 Climbing FlightAware ADS-B
Fri 03:17:00 PM 39.6250 -76.4610 231° Southwest 408 470 24,800 1,667 Level FlightAware ADS-B
Fri 03:17:36 PM 39.5820 -76.5300 231° Southwest 416 479 25,800 1,667 Climbing FlightAware ADS-B
Fri 03:17:36 PM 39.5820 -76.5300 231° Southwest 416 479 25,800 1,941 Level FlightAware ADS-B
Fri 03:18:10 PM 39.5400 -76.5970 231° Southwest 418 481 26,900 1,941 Climbing FlightAware ADS-B
Fri 03:18:10 PM 39.5400 -76.5970 231° Southwest 418 481 26,900 1,588 Level FlightAware ADS-B
Fri 03:18:44 PM 39.4980 -76.6640 231° Southwest 425 489 27,800 1,588 Climbing FlightAware ADS-B
Fri 03:18:44 PM 39.4980 -76.6640 231° Southwest 425 489 27,800 1,500 Level FlightAware ADS-B
Fri 03:19:20 PM 39.4520 -76.7360 230° Southwest 431 496 28,700 1,500 Climbing FlightAware ADS-B
Fri 03:19:20 PM 39.4520 -76.7360 230° Southwest 431 496 28,700 1,588 Level FlightAware ADS-B
Fri 03:19:54 PM 39.4100 -76.8030 231° Southwest 434 499 29,600 1,588 Climbing FlightAware ADS-B
Fri 03:19:54 PM 39.4100 -76.8030 231° Southwest 434 499 29,600 1,167 Level FlightAware ADS-B
Fri 03:20:30 PM 39.3630 -76.8770 231° Southwest 442 509 30,300 1,167 Climbing FlightAware ADS-B
Fri 03:20:30 PM 39.3630 -76.8770 231° Southwest 442 509 30,300 1,333 Level FlightAware ADS-B
Fri 03:21:06 PM 39.3180 -76.9480 231° Southwest 444 511 31,100 1,333 Climbing FlightAware ADS-B
Fri 03:21:06 PM 39.3180 -76.9480 231° Southwest 444 511 31,100 1,313 Level FlightAware ADS-B
Fri 03:21:38 PM 39.2760 -77.0140 231° Southwest 445 512 31,800 1,313 Climbing FlightAware ADS-B
Fri 03:21:38 PM 39.2760 -77.0140 231° Southwest 445 512 31,800 1,000 Level FlightAware ADS-B
Fri 03:22:14 PM 39.2280 -77.0910 231° Southwest 453 521 32,400 1,000 Climbing FlightAware ADS-B
Fri 03:22:14 PM 39.2280 -77.0910 231° Southwest 453 521 32,400 1,333 Level FlightAware ADS-B
Fri 03:22:50 PM 39.1800 -77.1660 230° Southwest 456 525 33,200 1,333 Climbing FlightAware ADS-B
Fri 03:22:50 PM 39.1800 -77.1660 230° Southwest 456 525 33,200 1,412 Level FlightAware ADS-B
Fri 03:23:24 PM 39.1350 -77.2350 230° Southwest 454 522 34,000 1,412 Climbing FlightAware ADS-B
Fri 03:23:24 PM 39.1350 -77.2350 230° Southwest 454 522 34,000 1,667 Level FlightAware ADS-B
Fri 03:24:00 PM 39.0860 -77.3120 231° Southwest 447 514 35,000 1,667 Climbing FlightAware ADS-B
Fri 03:24:00 PM 39.0860 -77.3120 231° Southwest 447 514 35,000 1,765 Level FlightAware ADS-B
Fri 03:24:34 PM 39.0420 -77.3810 231° Southwest 440 506 36,000 1,765 Climbing FlightAware ADS-B
Fri 03:24:34 PM 39.0420 -77.3810 231° Southwest 440 506 36,000 833 Level FlightAware ADS-B
Fri 03:25:10 PM 38.9950 -77.4530 230° Southwest 444 511 36,500 833 Climbing FlightAware ADS-B
Fri 03:25:10 PM 38.9950 -77.4530 230° Southwest 444 511 36,500 1,125 Level FlightAware ADS-B
Fri 03:25:42 PM 38.9540 -77.5170 231° Southwest 442 509 37,100 1,125 Climbing FlightAware ADS-B
Fri 03:25:42 PM 38.9540 -77.5170 231° Southwest 442 509 37,100 1,105 Level FlightAware ADS-B
Fri 03:26:20 PM 38.9070 -77.5900 230° Southwest 436 502 37,800 1,105 Climbing FlightAware ADS-B
Fri 03:26:20 PM 38.9070 -77.5900 230° Southwest 436 502 37,800 500 Level FlightAware ADS-B
Fri 03:26:56 PM 38.8580 -77.6640 230° Southwest 433 498 38,100 500 Climbing FlightAware ADS-B
Fri 03:26:56 PM 38.8580 -77.6640 230° Southwest 433 498 38,100  Level FlightAware ADS-B
Fri 03:27:31 PM 38.8150 -77.7310 231° Southwest 434 499 38,100  Level FlightAware ADS-B
Fri 03:27:31 PM 38.8150 -77.7310 231° Southwest 434 499 38,100 -188 Level FlightAware ADS-B
Fri 03:28:03 PM 38.7730 -77.7950 230° Southwest 435 501 38,000 -188 Descending FlightAware ADS-B
Fri 03:28:03 PM 38.7730 -77.7950 230° Southwest 435 501 38,000 158 Level FlightAware ADS-B
Fri 03:28:41 PM 38.7240 -77.8700 230° Southwest 435 501 38,100 158 Climbing FlightAware ADS-B
Fri 03:28:41 PM 38.7240 -77.8700 230° Southwest 435 501 38,100 -188 Level FlightAware ADS-B
Fri 03:29:13 PM 38.6830 -77.9330 230° Southwest 435 501 38,000 -188 Descending FlightAware ADS-B
Fri 03:29:13 PM 38.6830 -77.9330 230° Southwest 435 501 38,000  Level FlightAware ADS-B
Fri 03:29:49 PM 38.6360 -78.0050 230° Southwest 435 501 38,000  Level FlightAware ADS-B
Fri 03:29:49 PM 38.6360 -78.0050 230° Southwest 435 501 38,000  Level FlightAware ADS-B
Fri 03:30:25 PM 38.5910 -78.0740 230° Southwest 437 503 38,000  Level FlightAware ADS-B
Fri 03:30:25 PM 38.5910 -78.0740 230° Southwest 437 503 38,000 167 Level FlightAware ADS-B
Fri 03:31:01 PM 38.5420 -78.1480 230° Southwest 438 504 38,100 167 Climbing FlightAware ADS-B
Fri 03:31:01 PM 38.5420 -78.1480 230° Southwest 438 504 38,100  Level FlightAware ADS-B
Fri 03:31:36 PM 38.4990 -78.2140 230° Southwest 438 504 38,100  Level FlightAware ADS-B
Fri 03:31:36 PM 38.4990 -78.2140 230° Southwest 438 504 38,100  Level FlightAware ADS-B
Fri 03:32:08 PM 38.4540 -78.2820 230° Southwest 439 505 38,100  Level FlightAware ADS-B
Fri 03:32:08 PM 38.4540 -78.2820 230° Southwest 439 505 38,100  Level FlightAware ADS-B
Fri 03:32:44 PM 38.4060 -78.3530 229° Southwest 439 505 38,100  Level FlightAware ADS-B
Fri 03:32:44 PM 38.4060 -78.3530 229° Southwest 439 505 38,100  Level FlightAware ADS-B
Fri 03:33:14 PM 38.3680 -78.4110 230° Southwest 439 505 38,100  Level FlightAware ADS-B
Fri 03:33:14 PM 38.3680 -78.4110 230° Southwest 439 505 38,100  Level FlightAware ADS-B
Fri 03:33:57 PM 38.3120 -78.4960 230° Southwest 439 505 38,100  Level FlightAware ADS-B
Fri 03:33:57 PM 38.3120 -78.4960 230° Southwest 439 505 38,100  Level FlightAware ADS-B
Fri 03:34:29 PM 38.2690 -78.5590 229° Southwest 439 505 38,100  Level FlightAware ADS-B
Fri 03:34:29 PM 38.2690 -78.5590 229° Southwest 439 505 38,100  Level FlightAware ADS-B
Fri 03:35:07 PM 38.2200 -78.6320 230° Southwest 439 505 38,100  Level FlightAware ADS-B
Fri 03:35:07 PM 38.2200 -78.6320 230° Southwest 439 505 38,100  Level FlightAware ADS-B
Fri 03:35:39 PM 38.1780 -78.6960 230° Southwest 439 505 38,100  Level FlightAware ADS-B
Fri 03:35:39 PM 38.1780 -78.6960 230° Southwest 439 505 38,100  Level FlightAware ADS-B
Fri 03:36:15 PM 38.1300 -78.7670 229° Southwest 438 504 38,100  Level FlightAware ADS-B
Fri 03:36:15 PM 38.1300 -78.7670 229° Southwest 438 504 38,100 -188 Level FlightAware ADS-B
Fri 03:36:47 PM 38.0880 -78.8300 230° Southwest 439 505 38,000 -188 Descending FlightAware ADS-B
Fri 03:36:47 PM 38.0880 -78.8300 230° Southwest 439 505 38,000  Level FlightAware ADS-B
Fri 03:37:23 PM 38.0420 -78.8980 229° Southwest 439 505 38,000  Level FlightAware ADS-B
Fri 03:37:23 PM 38.0420 -78.8980 229° Southwest 439 505 38,000  Level FlightAware ADS-B
Fri 03:37:59 PM 37.9930 -78.9710 230° Southwest 439 505 38,000  Level FlightAware ADS-B
Fri 03:37:59 PM 37.9930 -78.9710 230° Southwest 439 505 38,000  Level FlightAware ADS-B
Fri 03:38:35 PM 37.9470 -79.0390 229° Southwest 441 507 38,000  Level FlightAware ADS-B
Fri 03:38:35 PM 37.9470 -79.0390 229° Southwest 441 507 38,000 167 Level FlightAware ADS-B
Fri 03:39:11 PM 37.8980 -79.1100 229° Southwest 441 507 38,100 167 Climbing FlightAware ADS-B
Fri 03:39:11 PM 37.8980 -79.1100 229° Southwest 441 507 38,100  Level FlightAware ADS-B
Fri 03:39:45 PM 37.8510 -79.1760 228° Southwest 442 509 38,100  Level FlightAware ADS-B
Fri 03:39:45 PM 37.8510 -79.1760 228° Southwest 442 509 38,100  Level FlightAware ADS-B
Fri 03:40:17 PM 37.8070 -79.2380 228° Southwest 443 510 38,100  Level FlightAware ADS-B
Fri 03:40:17 PM 37.8070 -79.2380 228° Southwest 443 510 38,100  Level FlightAware ADS-B
Fri 03:40:55 PM 37.7550 -79.3090 227° Southwest 443 510 38,100  Level FlightAware ADS-B
Fri 03:40:55 PM 37.7550 -79.3090 227° Southwest 443 510 38,100  Level FlightAware ADS-B
Fri 03:41:29 PM 37.7070 -79.3750 227° Southwest 441 507 38,100  Level FlightAware ADS-B
Fri 03:41:29 PM 37.7070 -79.3750 227° Southwest 441 507 38,100  Level FlightAware ADS-B
Fri 03:42:04 PM 37.6650 -79.4340 228° Southwest 441 507 38,100  Level FlightAware ADS-B
Fri 03:42:04 PM 37.6650 -79.4340 228° Southwest 441 507 38,100 -171 Level FlightAware ADS-B
Fri 03:42:39 PM 37.6120 -79.5070 228° Southwest 437 503 38,000 -171 Descending FlightAware ADS-B
Fri 03:42:39 PM 37.6120 -79.5070 228° Southwest 437 503 38,000  Level FlightAware ADS-B
Fri 03:43:24 PM 37.5530 -79.5880 227° Southwest 436 502 38,000  Level FlightAware ADS-B
Fri 03:43:24 PM 37.5530 -79.5880 227° Southwest 436 502 38,000  Level FlightAware ADS-B
Fri 03:43:55 PM 37.5090 -79.6480 227° Southwest 436 502 38,000  Level FlightAware ADS-B
Fri 03:43:55 PM 37.5090 -79.6480 227° Southwest 436 502 38,000  Level FlightAware ADS-B
Fri 03:44:31 PM 37.4610 -79.7150 228° Southwest 438 504 38,000  Level FlightAware ADS-B
Fri 03:44:31 PM 37.4610 -79.7150 228° Southwest 438 504 38,000  Level FlightAware ADS-B
Fri 03:45:05 PM 37.4160 -79.7760 227° Southwest 432 497 38,000  Level FlightAware ADS-B
Fri 03:45:05 PM 37.4160 -79.7760 227° Southwest 432 497 38,000  Level FlightAware ADS-B
Fri 03:45:45 PM 37.3710 -79.8400 229° Southwest 432 497 38,000  Level FlightAware ADS-B
Fri 03:45:45 PM 37.3710 -79.8400 229° Southwest 432 497 38,000  Level FlightAware ADS-B
Fri 03:46:22 PM 37.3290 -79.8980 228° Southwest 432 497 38,000  Level FlightAware ADS-B
Fri 03:46:22 PM 37.3290 -79.8980 228° Southwest 432 497 38,000 113 Level FlightAware ADS-B
Fri 03:47:15 PM 37.2390 -80.0170 226° Southwest 438 504 38,100 113 Climbing FlightAware ADS-B
Fri 03:47:15 PM 37.2390 -80.0170 226° Southwest 438 504 38,100  Level FlightAware ADS-B
Fri 03:47:49 PM 37.1990 -80.0710 227° Southwest 438 504 38,100  Level FlightAware ADS-B
Fri 03:47:49 PM 37.1990 -80.0710 227° Southwest 438 504 38,100  Level FlightAware ADS-B
Fri 03:48:25 PM 37.1570 -80.1280 227° Southwest 438 504 38,100  Level FlightAware ADS-B
Fri 03:48:25 PM 37.1570 -80.1280 227° Southwest 438 504 38,100 -88 Level FlightAware ADS-B
Fri 03:49:33 PM 37.0514 -80.2678 227° Southwest 432 497 38,000 -47 Descending Atlanta Center
Fri 03:50:33 PM 36.9692 -80.3758 226° Southwest 432 497 38,000 50 Level Atlanta Center
Fri 03:51:33 PM 36.8850 -80.4886 227° Southwest 432 497 38,100 50 Climbing Atlanta Center
Fri 03:52:33 PM 36.7944 -80.6119 228° Southwest 437 503 38,100  Level Atlanta Center
Fri 03:53:33 PM 36.7161 -80.7189 228° Southwest 432 497 38,100 -50 Level Atlanta Center
Fri 03:54:33 PM 36.6336 -80.8258 226° Southwest 432 497 38,000 -50 Descending Atlanta Center
Fri 03:55:33 PM 36.5531 -80.9350 227° Southwest 432 497 38,000  Level Atlanta Center
Fri 03:56:33 PM 36.4781 -81.0308 226° Southwest 427 491 38,000  Level Atlanta Center
Fri 03:57:33 PM 36.3994 -81.1394 228° Southwest 433 498 38,000 50 Level Atlanta Center
Fri 03:58:33 PM 36.3164 -81.2481 227° Southwest 433 498 38,100 50 Climbing Atlanta Center
Fri 03:59:33 PM 36.2333 -81.3567 227° Southwest 433 498 38,100  Level Atlanta Center
Fri 04:00:33 PM 36.1503 -81.4672 227° Southwest 433 498 38,100  Level Atlanta Center
Fri 04:01:33 PM 36.0647 -81.5728 225° Southwest 433 498 38,100  Level Atlanta Center
Fri 04:02:33 PM 35.9836 -81.6856 228° Southwest 438 504 38,100 -50 Level Atlanta Center
Fri 04:03:33 PM 35.8981 -81.7958 226° Southwest 438 504 38,000 -50 Descending Atlanta Center
Fri 04:04:33 PM 35.8144 -81.9006 225° Southwest 433 498 38,000 -400 Level Atlanta Center
Fri 04:05:33 PM 35.7308 -82.0100 227° Southwest 439 505 37,200 -900 Descending Atlanta Center
Fri 04:06:33 PM 35.6447 -82.1169 225° Southwest 434 499 36,200 -1,000 Descending Atlanta Center
Fri 04:07:33 PM 35.5506 -82.2367 226° Southwest 434 499 35,200 -600 Descending Atlanta Center
Fri 04:08:33 PM 35.4644 -82.3456 226° Southwest 439 505 35,000 -450 Descending Atlanta Center
Fri 04:09:33 PM 35.3783 -82.4544 226° Southwest 439 505 34,300 -950 Descending Atlanta Center
Fri 04:10:33 PM 35.2919 -82.5603 225° Southwest 439 505 33,100 -1,100 Descending Atlanta Center
Fri 04:11:33 PM 35.2119 -82.6583 225° Southwest 431 496 32,100 -1,100 Descending Atlanta Center
Fri 04:12:33 PM 35.1294 -82.7639 226° Southwest 426 490 30,900 -1,250 Descending Atlanta Center
Fri 04:13:33 PM 35.0489 -82.8464 220° Southwest 426 490 29,600 -1,300 Descending Atlanta Center
Fri 04:14:33 PM 34.9622 -82.9336 220° Southwest 421 484 28,300 -1,300 Descending Atlanta Center
Fri 04:15:33 PM 34.8794 -83.0233 222° Southwest 414 476 27,000 -1,300 Descending Atlanta Center
Fri 04:16:33 PM 34.7906 -83.1106 219° Southwest 409 471 25,700 -1,250 Descending Atlanta Center
Fri 04:17:33 PM 34.7117 -83.1997 223° Southwest 393 452 24,500 -850 Descending Atlanta Center
Fri 04:18:33 PM 34.6186 -83.2967 221° Southwest 417 480 24,000 -450 Descending Atlanta Center
Fri 04:19:33 PM 34.5314 -83.3806 218° Southwest 436 502 23,600 -1,450 Descending Atlanta Center
Fri 04:20:33 PM 34.4214 -83.5000 222° Southwest 450 518 21,100 -2,300 Descending Atlanta Center
Fri 04:21:33 PM 34.3319 -83.5936 221° Southwest 443 510 19,000 -1,850 Descending Atlanta Center
Fri 04:22:33 PM 34.2425 -83.6844 220° Southwest 431 496 17,400 -1,700 Descending Atlanta Center
Fri 04:23:33 PM 34.1572 -83.7728 221° Southwest 421 484 15,600 -1,700 Descending Atlanta Center
Fri 04:24:33 PM 34.0739 -83.8583 220° Southwest 411 473 14,000 -1,750 Descending Atlanta Center
Fri 04:25:33 PM 33.9903 -83.9486 222° Southwest 404 465 12,100 -1,000 Descending Atlanta Center
Fri 04:26:33 PM 33.9092 -84.0139 214° Southwest 404 465 12,000 -50 Descending Atlanta Center
Fri 04:27:33 PM 33.8150 -84.0789 210° Southwest 396 456 12,000  Level Atlanta Center
Fri 04:28:33 PM 33.7378 -84.1461 216° Southwest 373 429 12,000  Level Atlanta Center
Fri 04:29:33 PM 33.7314 -84.2336 265° West 274 315 12,000 -200 Level Atlanta Center
Fri 04:30:33 PM 33.7314 -84.3186 270° West 258 297 11,600 -1,078 Descending Atlanta Center
Fri 04:31:41 PM 33.7333 -84.4333 271° West 257 296 9,700 -1,623 Descending Atlanta TRACON
Fri 04:32:35 PM 33.7333 -84.5000 270° West 247 284 8,300 -1,579 Descending Atlanta TRACON
Fri 04:33:35 PM 33.7333 -84.5833 270° West 239 275 6,700 -1,526 Descending Atlanta TRACON
Fri 04:34:29 PM 33.7333 -84.6500 270° West 237 273 5,400 -1,368 Descending Atlanta TRACON
Fri 04:35:29 PM 33.6833 -84.6667 196° South 241 277 4,100 -800 Descending Atlanta TRACON
Fri 04:36:29 PM 33.6500 -84.6167 129° Southeast 200 230 3,800 -632 Descending Atlanta TRACON
Fri 04:37:23 PM 33.6500 -84.5667 90° East 197 227 2,900 -887 Descending Atlanta TRACON
Fri 04:38:24 PM 33.6500 -84.5000 90° East 160 184 2,100 -756 Descending Atlanta TRACON
Fri 04:39:30 PM 33.6500 -84.4500 90° East 132 152 1,300 -727 Descending Atlanta TRACON

Login

Don't have an account? Register now (free) for customized features, flight alerts, and more!